Terminal Aerodrome Forecast
Issued by NWS

Home | Current Version | Previous Version | Text Only | Print | Product List | Glossary On
Versions: 1 2 3 4 5 6 7 8 9 10 11 12 13 14 15 16 17 18
000
FTAK31 PAJN 131700
TAFAYA
TAF
PAYA 131722Z 1318/1418 VRB02KT 6SM -RA BR BKN004 OVC010
      TEMPO 1318/1321 2SM -RA BR OVC002
     FM132100 24005KT P6SM VCSH SCT006 BKN015 OVC030
     FM140500 00000KT P6SM SCT015 OVC040
     FM141200 00000KT 5SM BR SCT005 OVC015
      AMD LTD TO CLD VIS AND WIND 1401/1410=

USA.gov is the U.S. government's official web portal to all federal, state and local government web resources and services.